Time;durP1;ratioP1;P1;durP2;ratioP2;P2;SDS_P1;SDS_P2;PMS_P1;PMS_P2;Temp;Humidity;BMP_temperature;BMP_pressure;BME280_temperature;BME280_humidity;BME280_pressure;Samples;Min_cycle;Max_cycle;Signal;HPM_P1;HPM_P2
2022/04/22 00:02:21;;;;;;;;;;;;;;;25.19;27.63;100688.69;5076274;28;1035;-37
2022/04/22 00:04:47;;;;;;;;;;;;;;;25.12;27.63;100686.84;5076323;28;976;-38
2022/04/22 00:07:12;;;;;;;;;;;;;;;25.22;27.54;100692.06;5076752;28;902;-36
2022/04/22 00:09:37;;;;;;;;;;;;;;;25.15;27.61;100695.44;5076899;28;730;-37
2022/04/22 00:12:03;;;;;;;;;;;;;;;25.15;27.43;100695.44;5076160;28;1949;-37
2022/04/22 00:14:28;;;;;;;;;;;;;;;25.24;27.27;100688.16;5076417;28;794;-37
2022/04/22 00:16:53;;;;;;;;;;;;;;;24.55;27.41;100557.59;5074984;28;889;-38
2022/04/22 00:19:19;;;;;;;;;;;;;;;25.21;27.53;100679.63;5075303;28;932;-37
2022/04/22 00:21:47;;;;;;;;;;;;;;;25.24;27.23;100681.97;5076473;28;880;-35
2022/04/22 00:24:12;;;;;;;;;;;;;;;25.21;27.51;100679.63;5077178;28;861;-37
2022/04/22 00:26:37;;;;;;;;;;;;;;;25.21;27.51;100679.63;5076174;28;886;-38
2022/04/22 00:29:03;;;;;;;;;;;;;;;25.19;27.35;100675.22;5075538;28;829;-38
2022/04/22 00:31:28;;;;;;;;;;;;;;;25.18;27.60;100672.69;5076416;28;1902;-38
2022/04/22 00:33:54;;;;;;;;;;;;;;;25.19;27.40;100674.41;5070483;28;782;-38
2022/04/22 00:36:19;;;;;;;;;;;;;;;25.17;27.61;100676.41;5075625;28;782;-38
2022/04/22 00:38:44;;;;;;;;;;;;;;;25.22;27.52;100678.59;5076060;28;853;-37
2022/04/22 00:41:10;;;;;;;;;;;;;;;25.23;27.59;100669.50;5075924;28;846;-35
2022/04/22 00:43:42;;;;;;;;;;;;;;;25.18;27.65;100676.25;5076159;28;905;-38
2022/04/22 00:46:07;;;;;;;;;;;;;;;25.25;27.38;100680.94;5076467;28;856;-37
2022/04/22 00:48:32;;;;;;;;;;;;;;;25.24;27.27;100674.69;5070991;28;911;-39
2022/04/22 00:50:57;;;;;;;;;;;;;;;25.17;27.64;100671.84;5075320;28;1931;-38
2022/04/22 00:53:23;;;;;;;;;;;;;;;25.18;27.55;100667.31;5075722;28;794;-36
2022/04/22 00:55:48;;;;;;;;;;;;;;;25.25;27.57;100676.41;5058535;28;782;-38
2022/04/22 00:58:13;;;;;;;;;;;;;;;25.14;27.41;100666.81;5075516;28;1173;-38
2022/04/22 01:00:39;;;;;;;;;;;;;;;25.20;27.57;100665.31;5075855;28;1095;-39
2022/04/22 01:03:08;;;;;;;;;;;;;;;25.17;27.68;100668.34;5072949;28;856;-37
2022/04/22 01:11:01;;;;;;;;;;;;;;;25.22;27.62;100670.50;5071143;28;1957;-38
2022/04/22 01:13:26;;;;;;;;;;;;;;;25.21;27.51;100674.22;5075727;28;842;-37
2022/04/22 01:15:51;;;;;;;;;;;;;;;25.16;27.70;100677.41;5076067;28;868;-39
2022/04/22 01:18:17;;;;;;;;;;;;;;;25.12;27.86;100660.78;5074641;28;1087;-39
2022/04/22 01:20:42;;;;;;;;;;;;;;;25.23;27.58;100656.88;5057780;28;860;-39
2022/04/22 01:23:07;;;;;;;;;;;;;;;25.27;27.55;100658.22;5076032;28;753;-37
2022/04/22 01:25:33;;;;;;;;;;;;;;;25.26;27.67;100661.91;5075978;28;830;-35
2022/04/22 01:27:59;;;;;;;;;;;;;;;25.27;27.57;100655.53;5075413;28;905;-35
2022/04/22 01:30:24;;;;;;;;;;;;;;;25.24;27.65;100655.84;5077796;28;765;-36
2022/04/22 01:32:50;;;;;;;;;;;;;;;25.14;27.79;100650.66;5073383;28;1898;-34
2022/04/22 01:35:16;;;;;;;;;;;;;;;25.26;27.67;100661.91;5079528;28;797;-37
2022/04/22 01:37:43;;;;;;;;;;;;;;;25.16;27.82;100655.88;5079622;28;849;-37
2022/04/22 01:40:08;;;;;;;;;;;;;;;25.21;27.51;100650.81;5079993;28;797;-36
2022/04/22 01:42:34;;;;;;;;;;;;;;;25.20;27.50;100659.91;5079271;28;781;-33
2022/04/22 01:44:59;;;;;;;;;;;;;;;25.21;27.42;100656.19;5079170;28;956;-36
2022/04/22 01:47:24;;;;;;;;;;;;;;;25.16;27.78;100655.88;5075541;28;936;-36
2022/04/22 01:49:50;;;;;;;;;;;;;;;25.21;27.54;100658.91;5079091;28;845;-31
2022/04/22 01:52:15;;;;;;;;;;;;;;;25.23;27.63;100661.41;5079144;28;1972;-37
2022/04/22 01:54:41;;;;;;;;;;;;;;;25.16;27.62;100659.41;5079616;28;844;-36
2022/04/22 01:57:06;;;;;;;;;;;;;;;25.29;27.40;100656.19;5078321;28;892;-33
2022/04/22 01:59:31;;;;;;;;;;;;;;;25.28;27.26;100653.66;5079074;28;1040;-34
2022/04/22 02:01:58;;;;;;;;;;;;;;;25.23;27.53;100647.94;5078587;28;1397;-35
2022/04/22 02:04:23;;;;;;;;;;;;;;;25.24;27.37;100658.53;5078829;28;784;-36
2022/04/22 02:06:49;;;;;;;;;;;;;;;25.22;27.38;100651.66;5079250;28;902;-36
2022/04/22 02:09:14;;;;;;;;;;;;;;;25.15;27.64;100652.38;5078874;28;924;-35
2022/04/22 02:11:40;;;;;;;;;;;;;;;25.25;27.28;100645.94;5079186;28;1906;-37
2022/04/22 02:14:06;;;;;;;;;;;;;;;25.23;27.33;100638.03;5079061;28;849;-34
2022/04/22 02:16:31;;;;;;;;;;;;;;;25.22;27.26;100641.75;5078465;28;854;-37
2022/04/22 02:18:57;;;;;;;;;;;;;;;25.21;27.28;100642.75;5078110;28;833;-34
2022/04/22 02:21:22;;;;;;;;;;;;;;;25.22;27.50;100641.75;5079228;28;825;-36
2022/04/22 02:23:47;;;;;;;;;;;;;;;25.27;27.25;100644.78;5078866;28;884;-38
2022/04/22 02:26:13;;;;;;;;;;;;;;;25.18;27.46;100641.25;5078364;28;812;-36
2022/04/22 02:28:39;;;;;;;;;;;;;;;25.24;27.26;100644.28;5078858;28;1032;-34
2022/04/22 02:31:05;;;;;;;;;;;;;;;25.17;27.46;100644.94;5078569;28;1957;-37
2022/04/22 02:33:31;;;;;;;;;;;;;;;25.12;27.75;100644.63;5073020;28;902;-36
2022/04/22 02:35:56;;;;;;;;;;;;;;;25.15;27.64;100651.50;5078549;28;853;-37
2022/04/22 02:38:22;;;;;;;;;;;;;;;25.11;27.68;100644.81;5078489;28;830;-32
2022/04/22 02:46:15;;;;;;;;;;;;;;;25.16;27.61;100653.19;5077878;28;750;-36
2022/04/22 02:48:40;;;;;;;;;;;;;;;25.15;27.60;100659.59;5075048;28;1418;-33
2022/04/22 02:51:05;;;;;;;;;;;;;;;25.15;27.66;100656.91;5078397;28;1914;-34
2022/04/22 02:53:30;;;;;;;;;;;;;;;25.21;27.38;100652.69;5078049;28;901;-35
2022/04/22 02:55:56;;;;;;;;;;;;;;;25.18;27.52;100643.09;5077905;28;1496;-36
2022/04/22 02:58:21;;;;;;;;;;;;;;;25.07;27.68;100650.50;5074229;28;1306;-34
2022/04/22 03:00:46;;;;;;;;;;;;;;;25.03;27.80;100653.72;5065370;28;1002;-36
2022/04/22 03:03:12;;;;;;;;;;;;;;;24.94;27.62;100652.91;5042185;28;1890;-34
2022/04/22 03:05:37;;;;;;;;;;;;;;;23.89;27.22;100645.22;5055120;28;1227;-35
2022/04/22 03:08:02;;;;;;;;;;;;;;;23.47;27.94;100642.38;5077418;28;829;-33
2022/04/22 03:10:28;;;;;;;;;;;;;;;23.12;28.35;100642.34;5077508;28;827;-36
2022/04/22 03:12:53;;;;;;;;;;;;;;;22.89;28.49;100633.16;5077927;28;1898;-33
2022/04/22 03:15:18;;;;;;;;;;;;;;;22.80;28.80;100640.28;5058270;28;736;-33
2022/04/22 03:17:44;;;;;;;;;;;;;;;22.96;28.54;100634.19;5068109;28;817;-34
2022/04/22 03:20:09;;;;;;;;;;;;;;;22.92;28.57;100639.00;5060580;28;808;-36
2022/04/22 03:22:36;;;;;;;;;;;;;;;23.07;28.46;100644.66;5057764;28;1500;-33
2022/04/22 03:25:01;;;;;;;;;;;;;;;22.82;28.70;100635.63;5062459;28;862;-38
2022/04/22 03:27:26;;;;;;;;;;;;;;;22.62;28.76;100639.31;5057809;28;1020;-37
2022/04/22 03:29:52;;;;;;;;;;;;;;;22.46;29.16;100642.66;5058036;28;842;-37
2022/04/22 03:32:17;;;;;;;;;;;;;;;22.49;28.93;100650.41;5065342;28;1898;-32
2022/04/22 03:34:42;;;;;;;;;;;;;;;22.41;29.03;100644.13;5058016;28;1541;-35
2022/04/22 03:37:07;;;;;;;;;;;;;;;22.45;29.04;100632.09;5058473;28;1082;-36
2022/04/22 03:39:33;;;;;;;;;;;;;;;22.33;29.01;100637.69;5068840;28;912;-33
2022/04/22 03:41:58;;;;;;;;;;;;;;;22.37;28.99;100644.44;5057614;28;874;-33
2022/04/22 03:44:24;;;;;;;;;;;;;;;22.37;29.14;100649.78;5057603;28;787;-32
2022/04/22 03:46:49;;;;;;;;;;;;;;;22.38;29.18;100638.09;5062272;28;841;-33
2022/04/22 03:49:14;;;;;;;;;;;;;;;22.39;29.17;100628.19;5057658;28;834;-35
2022/04/22 03:51:39;;;;;;;;;;;;;;;22.88;30.14;100629.63;5066142;28;1955;-32
2022/04/22 03:54:05;;;;;;;;;;;;;;;23.31;29.68;100635.06;5057335;28;1446;-34
2022/04/22 03:59:14;;;;;;;;;;;;;;;23.33;28.51;100629.53;5059447;28;1284;-34
2022/04/22 04:01:39;;;;;;;;;;;;;;;23.04;28.74;100631.56;5075996;28;861;-36
2022/04/22 04:04:04;;;;;;;;;;;;;;;23.32;28.60;100630.53;5076339;28;819;-35
2022/04/22 04:06:30;;;;;;;;;;;;;;;23.33;28.54;100630.38;5076755;28;869;-33
2022/04/22 04:17:07;;;;;;;;;;;;;;;23.53;28.43;100627.47;5071148;28;765;-35
2022/04/22 04:25:00;;;;;;;;;;;;;;;23.78;28.07;100630.25;5076014;28;745;-34
2022/04/22 04:27:25;;;;;;;;;;;;;;;23.83;28.01;100619.00;5076426;28;792;-35
2022/04/22 04:29:50;;;;;;;;;;;;;;;23.82;27.85;100620.84;5075772;28;913;-33
2022/04/22 04:32:18;;;;;;;;;;;;;;;23.83;27.85;100625.22;5072656;28;1955;-32
2022/04/22 04:34:44;;;;;;;;;;;;;;;23.79;28.04;100636.47;5076343;28;869;-35
2022/04/22 04:37:10;;;;;;;;;;;;;;;23.85;28.78;100636.66;5076186;28;846;-31
2022/04/22 04:39:35;;;;;;;;;;;;;;;23.91;28.60;100635.16;5076193;28;861;-38
2022/04/22 04:42:02;;;;;;;;;;;;;;;23.93;28.27;100638.50;5076169;28;862;-34
2022/04/22 04:44:28;;;;;;;;;;;;;;;24.04;28.11;100642.72;5076565;28;754;-29
2022/04/22 04:46:53;;;;;;;;;;;;;;;23.89;28.35;100639.84;5074172;28;1067;-34
2022/04/22 04:49:18;;;;;;;;;;;;;;;24.04;28.15;100645.41;5076444;28;835;-31
2022/04/22 04:51:44;;;;;;;;;;;;;;;24.12;30.14;100639.22;5076078;28;1905;-37
2022/04/22 04:54:09;;;;;;;;;;;;;;;24.07;29.58;100637.00;5075586;28;916;-32
2022/04/22 04:56:34;;;;;;;;;;;;;;;24.04;28.24;100642.72;5076013;28;961;-34
2022/04/22 04:59:00;;;;;;;;;;;;;;;24.05;28.32;100648.94;5076326;28;1040;-31
2022/04/22 05:01:25;;;;;;;;;;;;;;;24.05;28.51;100649.81;5075668;28;794;-36
2022/04/22 05:03:50;;;;;;;;;;;;;;;24.09;28.32;100655.66;5068901;28;974;-35
2022/04/22 05:06:15;;;;;;;;;;;;;;;24.13;28.20;100670.47;5075988;28;790;-32
2022/04/22 05:08:41;;;;;;;;;;;;;;;24.08;28.14;100662.91;5075582;28;825;-31
2022/04/22 05:11:06;;;;;;;;;;;;;;;23.98;28.50;100654.13;5076172;28;1897;-31
2022/04/22 05:13:31;;;;;;;;;;;;;;;23.92;28.73;100657.50;5075898;28;793;-32
2022/04/22 05:15:57;;;;;;;;;;;;;;;23.84;28.73;100653.75;5075797;28;881;-31
2022/04/22 05:18:23;;;;;;;;;;;;;;;23.93;28.53;100651.09;5071267;28;942;-31
2022/04/22 05:20:49;;;;;;;;;;;;;;;23.98;28.58;100646.06;5075450;28;842;-32
2022/04/22 05:23:14;;;;;;;;;;;;;;;23.88;28.83;100648.91;5075601;28;832;-31
2022/04/22 05:25:39;;;;;;;;;;;;;;;23.80;28.76;100646.19;5075585;28;1111;-31
2022/04/22 05:28:06;;;;;;;;;;;;;;;23.92;28.83;100657.50;5075706;28;900;-31
2022/04/22 05:33:15;;;;;;;;;;;;;;;23.94;28.94;100655.50;5073215;28;1971;-34
2022/04/22 05:35:41;;;;;;;;;;;;;;;23.94;28.80;100663.53;5075572;28;917;-34
2022/04/22 05:38:07;;;;;;;;;;;;;;;24.09;28.66;100680.69;5075013;28;1099;-31
2022/04/22 05:40:36;;;;;;;;;;;;;;;24.32;28.58;100673.91;5075842;28;861;-37
2022/04/22 05:43:01;;;;;;;;;;;;;;;24.36;28.27;100672.53;5075612;28;817;-31
2022/04/22 05:45:27;;;;;;;;;;;;;;;24.29;28.36;100676.91;5074878;28;785;-36
2022/04/22 05:47:53;;;;;;;;;;;;;;;24.25;28.57;100672.88;5074965;28;894;-34
2022/04/22 05:50:18;;;;;;;;;;;;;;;24.24;28.64;100669.31;5075856;28;831;-35
2022/04/22 05:52:43;;;;;;;;;;;;;;;24.41;28.85;100674.72;5075261;28;1902;-35
2022/04/22 05:55:12;;;;;;;;;;;;;;;24.54;28.15;100677.75;5075329;28;1076;-32
2022/04/22 05:57:38;;;;;;;;;;;;;;;24.54;28.06;100682.31;5075017;28;1001;-37
2022/04/22 06:00:07;;;;;;;;;;;;;;;24.65;28.75;100686.53;5075305;28;1020;-36
2022/04/22 06:02:33;;;;;;;;;;;;;;;24.79;28.36;100682.31;5069658;28;893;-31
2022/04/22 06:04:58;;;;;;;;;;;;;;;24.78;28.49;100680.63;5075291;28;825;-35
2022/04/22 06:07:23;;;;;;;;;;;;;;;24.74;28.09;100674.75;5074881;28;853;-34
2022/04/22 06:12:32;;;;;;;;;;;;;;;24.62;28.19;100679.63;5073631;28;1985;-34
2022/04/22 06:15:02;;;;;;;;;;;;;;;24.55;28.20;100682.16;5074999;28;818;-36
2022/04/22 06:17:28;;;;;;;;;;;;;;;24.55;28.25;100674.09;5078327;28;891;-35
2022/04/22 06:19:53;;;;;;;;;;;;;;;23.79;30.35;100676.75;5078824;28;849;-35
2022/04/22 06:22:18;;;;;;;;;;;;;;;23.22;31.42;100669.06;5078407;28;819;-31
2022/04/22 06:24:44;;;;;;;;;;;;;;;22.86;32.29;100667.31;5078321;28;949;-37
2022/04/22 06:27:09;;;;;;;;;;;;;;;22.86;32.49;100666.47;5079046;28;814;-33
2022/04/22 06:29:35;;;;;;;;;;;;;;;23.56;30.81;100664.75;5078574;28;789;-32
2022/04/22 06:32:02;;;;;;;;;;;;;;;23.71;30.38;100659.59;5076354;28;1894;-34
2022/04/22 06:34:27;;;;;;;;;;;;;;;23.96;29.92;100664.19;5078838;28;828;-37
2022/04/22 06:36:52;;;;;;;;;;;;;;;23.97;29.75;100661.34;5077739;28;909;-33
2022/04/22 06:39:18;;;;;;;;;;;;;;;24.08;29.58;100675.50;5079081;28;995;-32
2022/04/22 06:47:11;;;;;;;;;;;;;;;24.27;29.39;100705.81;5078172;28;938;-35
2022/04/22 06:49:36;;;;;;;;;;;;;;;24.27;30.22;100709.34;5078623;28;820;-30
2022/04/22 06:52:02;;;;;;;;;;;;;;;24.66;29.22;100721.31;5077709;28;1879;-36
2022/04/22 06:54:27;;;;;;;;;;;;;;;24.35;29.06;100724.63;5078917;28;746;-34
2022/04/22 06:56:53;;;;;;;;;;;;;;;24.39;29.17;100719.78;5078449;28;993;-33
2022/04/22 06:59:21;;;;;;;;;;;;;;;24.46;28.99;100715.41;5077406;28;1250;-37
2022/04/22 07:01:47;;;;;;;;;;;;;;;24.47;28.84;100700.97;5074964;28;972;-38
2022/04/22 07:04:12;;;;;;;;;;;;;;;24.60;28.70;100694.25;5076505;28;855;-35
2022/04/22 07:06:38;;;;;;;;;;;;;;;24.71;29.01;100685.84;5077982;28;781;-36
2022/04/22 07:09:06;;;;;;;;;;;;;;;24.83;28.51;100676.44;5078347;28;861;-31
2022/04/22 07:11:32;;;;;;;;;;;;;;;24.89;28.47;100680.28;5077813;28;1910;-35
2022/04/22 07:13:58;;;;;;;;;;;;;;;24.57;28.84;100685.50;5058766;28;825;-33
2022/04/22 07:16:23;;;;;;;;;;;;;;;24.43;28.86;100700.47;5078317;28;829;-35
2022/04/22 07:18:49;;;;;;;;;;;;;;;24.31;29.08;100693.69;5074606;28;1009;-34
2022/04/22 07:21:14;;;;;;;;;;;;;;;24.32;29.14;100719.59;5077499;28;838;-34
2022/04/22 07:23:40;;;;;;;;;;;;;;;24.37;29.09;100729.84;5077856;28;862;-35
2022/04/22 07:26:06;;;;;;;;;;;;;;;24.39;29.10;100746.66;5077473;28;767;-35
2022/04/22 07:28:32;;;;;;;;;;;;;;;24.36;29.23;100755.88;5076479;28;846;-34
2022/04/22 07:30:57;;;;;;;;;;;;;;;24.37;29.32;100764.81;5077389;28;846;-34
2022/04/22 07:33:23;;;;;;;;;;;;;;;24.37;29.12;100771.03;5058592;28;1902;-33
2022/04/22 07:35:48;;;;;;;;;;;;;;;24.37;29.32;100772.88;5077223;28;842;-37
2022/04/22 07:38:14;;;;;;;;;;;;;;;24.36;29.21;100774.69;5077256;28;742;-32
2022/04/22 07:40:40;;;;;;;;;;;;;;;24.36;29.14;100768.50;5076736;28;811;-34
2022/04/22 07:48:34;;;;;;;;;;;;;;;24.37;29.26;100768.34;5071463;28;792;-35
2022/04/22 07:50:59;;;;;;;;;;;;;;;24.39;29.18;100787.81;5076857;28;912;-32
2022/04/22 07:53:24;;;;;;;;;;;;;;;24.46;29.09;100788.00;5076904;28;1906;-36
2022/04/22 07:55:50;;;;;;;;;;;;;;;24.41;29.17;100787.66;5076986;28;913;-37
2022/04/22 07:58:15;;;;;;;;;;;;;;;24.50;29.08;100796.59;5076182;28;932;-35
2022/04/22 08:00:47;;;;;;;;;;;;;;;24.40;29.12;100785.97;5091142;28;1294;-32
2022/04/22 08:03:13;;;;;;;;;;;;;;;24.48;29.04;100791.38;5086598;28;901;-33
2022/04/22 08:05:38;;;;;;;;;;;;;;;24.58;28.82;100788.53;5082854;28;779;-35
2022/04/22 08:08:04;;;;;;;;;;;;;;;24.64;28.81;100789.75;5077328;28;750;-30
2022/04/22 08:10:29;;;;;;;;;;;;;;;24.57;28.89;100785.00;5077359;28;952;-33
2022/04/22 08:12:55;;;;;;;;;;;;;;;24.60;28.79;100778.47;5077046;28;2232;-36
2022/04/22 08:15:21;;;;;;;;;;;;;;;24.62;28.85;100773.78;5077106;28;881;-33
2022/04/22 08:17:46;;;;;;;;;;;;;;;24.53;28.99;100775.59;5087254;28;866;-35
2022/04/22 08:20:12;;;;;;;;;;;;;;;24.63;28.88;100779.97;5081763;28;846;-32
2022/04/22 08:22:38;;;;;;;;;;;;;;;24.67;28.68;100770.59;5076788;28;861;-35
2022/04/22 08:25:04;;;;;;;;;;;;;;;24.61;28.88;100769.38;5076910;28;931;-32
2022/04/22 08:27:29;;;;;;;;;;;;;;;24.70;29.00;100772.94;5077445;28;814;-38
2022/04/22 08:29:54;;;;;;;;;;;;;;;24.76;28.77;100776.78;5076701;28;782;-34
2022/04/22 08:32:19;;;;;;;;;;;;;;;24.67;28.72;100782.16;5094791;28;1922;-35
2022/04/22 08:34:46;;;;;;;;;;;;;;;24.75;28.74;100770.59;5076653;28;880;-31
2022/04/22 08:37:11;;;;;;;;;;;;;;;24.76;28.56;100777.66;5076387;28;1455;-35
2022/04/22 08:39:36;;;;;;;;;;;;;;;24.76;28.70;100772.25;5075986;28;1051;-32
2022/04/22 08:42:02;;;;;;;;;;;;;;;24.79;28.76;100779.19;5077064;28;829;-32
2022/04/22 08:44:28;;;;;;;;;;;;;;;24.69;28.84;100774.78;5084382;28;844;-35
2022/04/22 08:52:21;;;;;;;;;;;;;;;24.72;28.94;100775.47;5076106;28;1980;-32
2022/04/22 08:54:46;;;;;;;;;;;;;;;24.72;28.78;100765.53;5076479;28;1213;-33
2022/04/22 08:57:12;;;;;;;;;;;;;;;24.74;28.84;100760.00;5063003;28;930;-34
2022/04/22 08:59:38;;;;;;;;;;;;;;;24.78;28.88;100756.81;5075579;28;1092;-33
2022/04/22 09:02:03;;;;;;;;;;;;;;;24.85;28.65;100751.59;5075850;28;906;-31
2022/04/22 09:04:29;;;;;;;;;;;;;;;24.75;28.74;100742.84;5076040;28;782;-33
2022/04/22 09:06:54;;;;;;;;;;;;;;;24.83;28.65;100741.00;5075947;28;904;-33
2022/04/22 09:09:20;;;;;;;;;;;;;;;24.92;28.47;100735.66;5075625;28;814;-32
2022/04/22 09:11:45;;;;;;;;;;;;;;;24.93;28.54;100727.41;5075866;28;1914;-33
2022/04/22 09:14:21;;;;;;;;;;;;;;;24.85;28.83;100713.94;5075663;28;829;-32
2022/04/22 09:16:46;;;;;;;;;;;;;;;24.81;28.66;100705.34;5074839;28;866;-31
2022/04/22 09:19:12;;;;;;;;;;;;;;;24.88;28.61;100708.22;5075848;28;821;-34
2022/04/22 09:21:38;;;;;;;;;;;;;;;24.89;28.66;100701.81;5075013;28;810;-34
2022/04/22 09:24:11;;;;;;;;;;;;;;;24.88;28.90;100692.06;5058257;28;826;-34
2022/04/22 09:26:36;;;;;;;;;;;;;;;24.87;28.67;100676.09;5075782;28;806;-32
2022/04/22 09:29:03;;;;;;;;;;;;;;;24.93;28.59;100670.06;5075395;28;821;-33
2022/04/22 09:31:28;;;;;;;;;;;;;;;25.16;28.63;100670.19;5075956;28;1886;-33
2022/04/22 09:33:56;;;;;;;;;;;;;;;25.33;28.50;100661.22;5074705;28;861;-37
2022/04/22 09:44:48;;;;;;;;;;;;;;;25.06;28.31;100635.38;5075673;28;693;-31
2022/04/22 09:47:13;;;;;;;;;;;;;;;25.13;28.31;100632.84;5071373;28;837;-33
2022/04/22 09:49:39;;;;;;;;;;;;;;;25.17;28.12;100611.81;5075014;28;892;-35
2022/04/22 09:52:07;;;;;;;;;;;;;;;25.28;28.17;100603.34;5079591;28;1890;-33
2022/04/22 09:54:32;;;;;;;;;;;;;;;25.28;28.25;100589.03;5079654;28;782;-31
2022/04/22 09:56:58;;;;;;;;;;;;;;;25.25;28.16;100579.47;5079255;28;872;-33
2022/04/22 09:59:26;;;;;;;;;;;;;;;25.22;28.38;100557.44;5079152;28;1248;-33
2022/04/22 10:01:52;;;;;;;;;;;;;;;25.19;28.44;100511.00;5077019;28;918;-33
2022/04/22 10:04:17;;;;;;;;;;;;;;;25.24;28.40;100491.63;5079454;28;819;-35
2022/04/22 10:06:42;;;;;;;;;;;;;;;25.16;28.36;100499.75;5079373;28;802;-34
2022/04/22 10:09:09;;;;;;;;;;;;;;;25.12;28.47;100504.69;5060527;28;1027;-31
2022/04/22 10:11:35;;;;;;;;;;;;;;;25.19;28.24;100523.66;5061143;28;1909;-33
2022/04/22 10:14:00;;;;;;;;;;;;;;;25.11;28.54;100537.16;5061003;28;873;-32
2022/04/22 10:16:25;;;;;;;;;;;;;;;25.15;28.47;100563.53;5053529;28;857;-37
2022/04/22 10:18:51;;;;;;;;;;;;;;;25.15;28.53;100565.38;5060300;28;1227;-32
2022/04/22 10:21:16;;;;;;;;;;;;;;;25.11;28.57;100564.88;5060610;28;963;-32
2022/04/22 10:23:41;;;;;;;;;;;;;;;25.15;28.52;100563.53;5060058;28;871;-36
2022/04/22 10:26:06;;;;;;;;;;;;;;;25.15;28.46;100574.31;5078267;28;853;-34
2022/04/22 10:28:32;;;;;;;;;;;;;;;25.46;28.18;100567.25;5079157;28;772;-34
2022/04/22 10:31:00;;;;;;;;;;;;;;;25.43;27.93;100565.75;5060546;28;1013;-35
2022/04/22 10:33:25;;;;;;;;;;;;;;;25.44;28.21;100562.03;5060682;28;1937;-32
2022/04/22 10:35:56;;;;;;;;;;;;;;;25.36;28.18;100570.16;5078572;28;773;-32
2022/04/22 10:38:28;;;;;;;;;;;;;;;25.36;28.33;100588.19;5078125;28;978;-30
2022/04/22 10:40:53;;;;;;;;;;;;;;;25.42;28.04;100598.25;5078369;28;813;-31
2022/04/22 10:43:18;;;;;;;;;;;;;;;25.46;28.10;100580.72;5078547;28;970;-34
2022/04/22 10:48:30;;;;;;;;;;;;;;;25.40;28.29;100587.66;5071934;28;864;-32
2022/04/22 10:50:55;;;;;;;;;;;;;;;25.43;28.05;100594.53;5078081;28;812;-35
2022/04/22 10:53:23;;;;;;;;;;;;;;;25.47;28.20;100593.19;5078123;28;1894;-31
2022/04/22 10:55:48;;;;;;;;;;;;;;;25.47;28.10;100597.72;5071722;28;836;-36
2022/04/22 10:58:14;;;;;;;;;;;;;;;25.49;27.96;100598.41;5078615;28;885;-33
2022/04/22 11:00:43;;;;;;;;;;;;;;;25.47;27.91;100593.19;5091829;28;1022;-32
2022/04/22 11:03:12;;;;;;;;;;;;;;;25.43;28.02;100594.53;5086622;28;903;-35
2022/04/22 11:05:38;;;;;;;;;;;;;;;25.53;27.94;100587.09;5098179;28;730;-33
2022/04/22 11:08:04;;;;;;;;;;;;;;;25.50;28.20;100582.06;5098111;28;940;-33
2022/04/22 11:10:54;;;;;;;;;;;;;;;25.50;27.91;100582.06;5097802;28;922;-31
2022/04/22 11:13:29;;;;;;;;;;;;;;;25.52;28.07;100587.28;5097687;28;1909;-34
2022/04/22 11:15:57;;;;;;;;;;;;;;;25.55;28.07;100592.31;5097237;28;920;-32
2022/04/22 11:18:23;;;;;;;;;;;;;;;25.55;28.14;100586.91;5086709;28;890;-31
2022/04/22 11:20:51;;;;;;;;;;;;;;;25.56;27.88;100578.66;5078073;28;861;-34
2022/04/22 11:23:16;;;;;;;;;;;;;;;25.66;28.01;100588.38;5078277;28;757;-33
2022/04/22 11:25:42;;;;;;;;;;;;;;;25.67;28.10;100587.38;5077651;28;778;-34
2022/04/22 11:28:07;;;;;;;;;;;;;;;25.61;28.12;100590.78;5093507;28;795;-36
2022/04/22 11:30:33;;;;;;;;;;;;;;;25.56;28.00;100588.59;5088128;28;895;-32
2022/04/22 11:33:17;;;;;;;;;;;;;;;25.54;27.96;100579.84;5080877;28;1901;-31
2022/04/22 11:35:43;;;;;;;;;;;;;;;25.58;27.89;100583.00;5078144;28;882;-35
2022/04/22 11:38:09;;;;;;;;;;;;;;;25.52;28.08;100571.97;5077917;28;841;-34
2022/04/22 11:40:39;;;;;;;;;;;;;;;25.62;27.82;100577.13;5077550;28;827;-33
2022/04/22 11:43:05;;;;;;;;;;;;;;;25.65;27.95;100578.63;5083868;28;841;-31
2022/04/22 11:45:30;;;;;;;;;;;;;;;25.86;27.68;100567.22;5078129;28;734;-34
2022/04/22 11:47:55;;;;;;;;;;;;;;;25.88;27.66;100564.34;5085682;28;934;-33
2022/04/22 11:50:21;;;;;;;;;;;;;;;25.82;27.63;100565.06;5060022;28;906;-32
2022/04/22 11:52:53;;;;;;;;;;;;;;;25.90;27.63;100573.09;5078208;28;1902;-35
2022/04/22 11:55:19;;;;;;;;;;;;;;;25.89;27.74;100566.03;5080007;28;817;-30
2022/04/22 11:57:45;;;;;;;;;;;;;;;25.99;27.54;100568.50;5059903;28;1196;-33
2022/04/22 12:05:46;;;;;;;;;;;;;;;26.20;27.17;100556.19;5071717;28;731;-30
2022/04/22 12:08:13;;;;;;;;;;;;;;;26.24;26.97;100560.22;5076670;28;919;-31
2022/04/22 12:10:38;;;;;;;;;;;;;;;26.32;26.89;100548.50;5076438;28;806;-32
2022/04/22 12:13:04;;;;;;;;;;;;;;;26.33;26.85;100545.66;5076959;28;1914;-35
2022/04/22 12:15:29;;;;;;;;;;;;;;;26.47;27.19;100537.78;5076587;28;865;-34
2022/04/22 12:17:55;;;;;;;;;;;;;;;26.43;26.80;100540.00;5076129;28;831;-35
2022/04/22 12:20:20;;;;;;;;;;;;;;;26.35;27.04;100532.00;5076729;28;822;-33
2022/04/22 12:22:49;;;;;;;;;;;;;;;26.35;26.90;100529.28;5057971;28;838;-34
2022/04/22 12:25:19;;;;;;;;;;;;;;;26.43;26.84;100523.81;5052622;28;841;-29
2022/04/22 12:28:03;;;;;;;;;;;;;;;26.41;26.67;100518.59;5071178;28;810;-35
2022/04/22 12:30:33;;;;;;;;;;;;;;;26.30;27.09;100513.63;5077018;28;746;-34
2022/04/22 12:32:58;;;;;;;;;;;;;;;26.49;26.83;100523.06;5075502;28;1977;-34
2022/04/22 12:35:24;;;;;;;;;;;;;;;26.45;26.90;100532.56;5076564;28;861;-37
2022/04/22 12:37:49;;;;;;;;;;;;;;;26.36;27.04;100529.09;5076329;28;782;-36
2022/04/22 12:40:15;;;;;;;;;;;;;;;26.46;26.77;100528.03;5076681;28;817;-34
2022/04/22 12:42:41;;;;;;;;;;;;;;;26.47;26.91;100532.38;5076386;28;888;-33
2022/04/22 12:53:28;;;;;;;;;;;;;;;26.36;27.02;100525.59;5076121;28;1973;-35
2022/04/22 12:56:03;;;;;;;;;;;;;;;26.46;26.72;100522.63;5076112;28;777;-31
2022/04/22 12:58:28;;;;;;;;;;;;;;;26.38;27.17;100526.22;5075791;28;781;-32
2022/04/22 13:00:54;;;;;;;;;;;;;;;26.36;26.92;100520.19;5075986;28;1117;-37
2022/04/22 13:03:21;;;;;;;;;;;;;;;26.61;26.67;100523.47;5069739;28;871;-36
2022/04/22 13:05:47;;;;;;;;;;;;;;;26.59;26.58;100524.69;5076228;28;844;-35
2022/04/22 13:08:15;;;;;;;;;;;;;;;26.65;26.86;100523.94;5075956;28;861;-33
2022/04/22 13:10:41;;;;;;;;;;;;;;;26.69;26.47;100529.81;5075127;28;742;-34
2022/04/22 13:13:07;;;;;;;;;;;;;;;26.71;26.53;100533.97;5075669;28;1906;-33
2022/04/22 13:15:32;;;;;;;;;;;;;;;26.56;26.65;100533.16;5076442;28;766;-33
2022/04/22 13:17:57;;;;;;;;;;;;;;;26.69;26.79;100521.72;5071763;28;995;-31
2022/04/22 13:20:23;;;;;;;;;;;;;;;26.53;26.94;100519.00;5076314;28;761;-37
2022/04/22 13:22:48;;;;;;;;;;;;;;;26.44;27.21;100514.72;5075912;28;813;-35
2022/04/22 13:25:14;;;;;;;;;;;;;;;26.46;27.14;100520.75;5074664;28;1113;-29
2022/04/22 13:27:40;;;;;;;;;;;;;;;26.42;27.25;100516.75;5075596;28;1155;-36
2022/04/22 13:30:05;;;;;;;;;;;;;;;26.38;26.91;100510.88;5075770;28;857;-32
2022/04/22 13:32:31;;;;;;;;;;;;;;;26.27;27.24;100516.69;5075085;28;1910;-30
2022/04/22 13:34:56;;;;;;;;;;;;;;;26.20;27.45;100505.81;5069075;28;822;-34
2022/04/22 13:37:21;;;;;;;;;;;;;;;26.29;27.23;100499.31;5075586;28;876;-33
2022/04/22 13:39:46;;;;;;;;;;;;;;;26.52;27.06;100484.97;5074972;28;928;-32
2022/04/22 13:42:12;;;;;;;;;;;;;;;26.47;27.25;100484.69;5075745;28;853;-37
2022/04/22 13:52:50;;;;;;;;;;;;;;;26.16;27.55;100474.81;5075422;28;1914;-34
2022/04/22 13:55:15;;;;;;;;;;;;;;;26.19;27.57;100479.03;5075319;28;743;-31
2022/04/22 13:57:42;;;;;;;;;;;;;;;26.21;27.17;100488.59;5075535;28;928;-34
2022/04/22 14:00:07;;;;;;;;;;;;;;;26.22;27.10;100481.34;5075066;28;1040;-35
2022/04/22 14:02:33;;;;;;;;;;;;;;;26.15;27.36;100478.56;5074398;28;912;-32
2022/04/22 14:04:58;;;;;;;;;;;;;;;26.62;27.02;100471.19;5056368;28;1350;-35
2022/04/22 14:07:24;;;;;;;;;;;;;;;26.73;26.30;100477.13;5057975;28;1105;-31
2022/04/22 14:09:49;;;;;;;;;;;;;;;26.67;26.82;100467.94;5075262;28;786;-37
2022/04/22 14:12:15;;;;;;;;;;;;;;;26.46;26.89;100474.09;5075675;28;1902;-35